sensor_id;sensor_type;location;lat;lon;timestamp;P1;durP1;ratioP1;P2;durP2;ratioP2
31910;SDS011;18457;52.432;16.914;2023-04-24T00:01:18;31.20;;;20.50;;
31910;SDS011;18457;52.432;16.914;2023-04-24T00:03:50;34.90;;;21.40;;
31910;SDS011;18457;52.432;16.914;2023-04-24T00:06:23;34.70;;;20.40;;
31910;SDS011;18457;52.432;16.914;2023-04-24T00:09:02;35.60;;;20.30;;
31910;SDS011;18457;52.432;16.914;2023-04-24T00:11:34;35.40;;;20.30;;
31910;SDS011;18457;52.432;16.914;2023-04-24T00:14:07;29.70;;;21.10;;
31910;SDS011;18457;52.432;16.914;2023-04-24T00:16:39;32.00;;;21.00;;
31910;SDS011;18457;52.432;16.914;2023-04-24T00:19:12;32.20;;;19.80;;
31910;SDS011;18457;52.432;16.914;2023-04-24T00:21:46;30.80;;;19.30;;
31910;SDS011;18457;52.432;16.914;2023-04-24T00:24:21;27.30;;;17.50;;
31910;SDS011;18457;52.432;16.914;2023-04-24T00:26:54;32.80;;;19.50;;
31910;SDS011;18457;52.432;16.914;2023-04-24T00:29:26;30.30;;;18.40;;
31910;SDS011;18457;52.432;16.914;2023-04-24T00:31:58;31.00;;;17.90;;
31910;SDS011;18457;52.432;16.914;2023-04-24T00:34:31;29.00;;;18.00;;
31910;SDS011;18457;52.432;16.914;2023-04-24T00:37:03;27.90;;;18.80;;
31910;SDS011;18457;52.432;16.914;2023-04-24T00:39:35;26.20;;;17.70;;
31910;SDS011;18457;52.432;16.914;2023-04-24T00:42:09;29.80;;;19.20;;
31910;SDS011;18457;52.432;16.914;2023-04-24T00:44:43;27.80;;;18.30;;
31910;SDS011;18457;52.432;16.914;2023-04-24T00:47:15;26.30;;;17.30;;
31910;SDS011;18457;52.432;16.914;2023-04-24T00:49:50;26.60;;;17.80;;
31910;SDS011;18457;52.432;16.914;2023-04-24T00:52:22;25.00;;;17.00;;
31910;SDS011;18457;52.432;16.914;2023-04-24T00:54:55;25.90;;;16.10;;
31910;SDS011;18457;52.432;16.914;2023-04-24T00:57:27;28.10;;;17.80;;
31910;SDS011;18457;52.432;16.914;2023-04-24T01:00:00;23.40;;;16.00;;
31910;SDS011;18457;52.432;16.914;2023-04-24T01:02:35;22.90;;;16.60;;
31910;SDS011;18457;52.432;16.914;2023-04-24T01:05:09;23.80;;;16.10;;
31910;SDS011;18457;52.432;16.914;2023-04-24T01:07:45;24.80;;;16.60;;
31910;SDS011;18457;52.432;16.914;2023-04-24T01:10:18;23.50;;;15.60;;
31910;SDS011;18457;52.432;16.914;2023-04-24T01:12:51;23.80;;;16.10;;
31910;SDS011;18457;52.432;16.914;2023-04-24T01:15:23;25.40;;;16.20;;
31910;SDS011;18457;52.432;16.914;2023-04-24T01:17:55;28.10;;;17.40;;
31910;SDS011;18457;52.432;16.914;2023-04-24T01:20:30;23.70;;;15.60;;
31910;SDS011;18457;52.432;16.914;2023-04-24T01:23:05;24.90;;;16.70;;
31910;SDS011;18457;52.432;16.914;2023-04-24T01:25:39;24.10;;;16.90;;
31910;SDS011;18457;52.432;16.914;2023-04-24T01:28:14;27.80;;;17.00;;
31910;SDS011;18457;52.432;16.914;2023-04-24T01:30:47;24.50;;;17.10;;
31910;SDS011;18457;52.432;16.914;2023-04-24T01:33:19;26.40;;;17.50;;
31910;SDS011;18457;52.432;16.914;2023-04-24T01:35:54;26.30;;;17.10;;
31910;SDS011;18457;52.432;16.914;2023-04-24T01:40:57;25.80;;;15.80;;
31910;SDS011;18457;52.432;16.914;2023-04-24T01:43:29;24.70;;;16.80;;
31910;SDS011;18457;52.432;16.914;2023-04-24T01:46:01;25.60;;;18.10;;
31910;SDS011;18457;52.432;16.914;2023-04-24T01:48:38;22.30;;;15.90;;
31910;SDS011;18457;52.432;16.914;2023-04-24T01:51:11;23.20;;;17.20;;
31910;SDS011;18457;52.432;16.914;2023-04-24T01:53:43;26.60;;;17.70;;
31910;SDS011;18457;52.432;16.914;2023-04-24T01:56:15;27.50;;;17.50;;
31910;SDS011;18457;52.432;16.914;2023-04-24T01:58:48;23.50;;;17.40;;
31910;SDS011;18457;52.432;16.914;2023-04-24T02:01:21;25.10;;;17.70;;
31910;SDS011;18457;52.432;16.914;2023-04-24T02:03:55;25.00;;;16.90;;
31910;SDS011;18457;52.432;16.914;2023-04-24T02:06:27;25.80;;;18.00;;
31910;SDS011;18457;52.432;16.914;2023-04-24T02:09:02;23.50;;;16.40;;
31910;SDS011;18457;52.432;16.914;2023-04-24T02:11:34;24.60;;;17.10;;
31910;SDS011;18457;52.432;16.914;2023-04-24T02:14:08;25.30;;;16.90;;
31910;SDS011;18457;52.432;16.914;2023-04-24T02:16:41;26.50;;;18.10;;
31910;SDS011;18457;52.432;16.914;2023-04-24T02:19:14;26.20;;;16.90;;
31910;SDS011;18457;52.432;16.914;2023-04-24T02:21:46;24.30;;;16.80;;
31910;SDS011;18457;52.432;16.914;2023-04-24T02:24:18;27.80;;;16.40;;
31910;SDS011;18457;52.432;16.914;2023-04-24T02:26:50;29.10;;;19.20;;
31910;SDS011;18457;52.432;16.914;2023-04-24T02:29:22;24.40;;;17.20;;
31910;SDS011;18457;52.432;16.914;2023-04-24T02:31:54;29.10;;;18.60;;
31910;SDS011;18457;52.432;16.914;2023-04-24T02:34:26;19.50;;;12.50;;
31910;SDS011;18457;52.432;16.914;2023-04-24T02:36:58;21.90;;;16.10;;
31910;SDS011;18457;52.432;16.914;2023-04-24T02:39:30;31.10;;;17.80;;
31910;SDS011;18457;52.432;16.914;2023-04-24T02:42:04;25.80;;;16.30;;
31910;SDS011;18457;52.432;16.914;2023-04-24T02:44:37;22.10;;;16.20;;
31910;SDS011;18457;52.432;16.914;2023-04-24T02:47:09;25.60;;;17.10;;
31910;SDS011;18457;52.432;16.914;2023-04-24T02:49:41;29.60;;;17.70;;
31910;SDS011;18457;52.432;16.914;2023-04-24T02:52:13;22.00;;;16.20;;
31910;SDS011;18457;52.432;16.914;2023-04-24T02:54:46;23.60;;;15.50;;
31910;SDS011;18457;52.432;16.914;2023-04-24T02:57:18;29.70;;;16.10;;
31910;SDS011;18457;52.432;16.914;2023-04-24T02:59:50;23.80;;;16.00;;
31910;SDS011;18457;52.432;16.914;2023-04-24T03:02:22;23.40;;;15.80;;
31910;SDS011;18457;52.432;16.914;2023-04-24T03:04:55;22.80;;;16.20;;
31910;SDS011;18457;52.432;16.914;2023-04-24T03:07:28;23.80;;;16.70;;
31910;SDS011;18457;52.432;16.914;2023-04-24T03:10:01;23.50;;;16.00;;
31910;SDS011;18457;52.432;16.914;2023-04-24T03:12:33;23.50;;;15.10;;
31910;SDS011;18457;52.432;16.914;2023-04-24T03:15:06;21.60;;;15.80;;
31910;SDS011;18457;52.432;16.914;2023-04-24T03:17:40;23.00;;;17.10;;
31910;SDS011;18457;52.432;16.914;2023-04-24T03:20:12;26.40;;;16.50;;
31910;SDS011;18457;52.432;16.914;2023-04-24T03:22:44;28.30;;;16.20;;
31910;SDS011;18457;52.432;16.914;2023-04-24T03:25:18;21.60;;;15.20;;
31910;SDS011;18457;52.432;16.914;2023-04-24T03:27:51;22.50;;;14.60;;
31910;SDS011;18457;52.432;16.914;2023-04-24T03:30:43;20.90;;;14.80;;
31910;SDS011;18457;52.432;16.914;2023-04-24T03:33:17;25.20;;;14.70;;
31910;SDS011;18457;52.432;16.914;2023-04-24T03:35:58;20.70;;;15.00;;
31910;SDS011;18457;52.432;16.914;2023-04-24T03:38:38;23.00;;;14.80;;
31910;SDS011;18457;52.432;16.914;2023-04-24T03:41:22;25.20;;;15.90;;
31910;SDS011;18457;52.432;16.914;2023-04-24T03:44:05;25.70;;;16.20;;
31910;SDS011;18457;52.432;16.914;2023-04-24T03:46:38;20.80;;;14.80;;
31910;SDS011;18457;52.432;16.914;2023-04-24T03:49:13;23.60;;;15.90;;
31910;SDS011;18457;52.432;16.914;2023-04-24T03:51:47;19.40;;;14.50;;
31910;SDS011;18457;52.432;16.914;2023-04-24T03:54:23;22.20;;;14.90;;
31910;SDS011;18457;52.432;16.914;2023-04-24T03:56:56;25.80;;;16.20;;
31910;SDS011;18457;52.432;16.914;2023-04-24T03:59:30;28.00;;;16.30;;
31910;SDS011;18457;52.432;16.914;2023-04-24T04:02:10;27.80;;;16.90;;
31910;SDS011;18457;52.432;16.914;2023-04-24T04:04:44;21.80;;;15.90;;
31910;SDS011;18457;52.432;16.914;2023-04-24T04:07:18;25.80;;;17.40;;
31910;SDS011;18457;52.432;16.914;2023-04-24T04:09:52;24.10;;;16.10;;
31910;SDS011;18457;52.432;16.914;2023-04-24T04:12:25;25.80;;;16.70;;
31910;SDS011;18457;52.432;16.914;2023-04-24T04:14:58;25.90;;;17.30;;
31910;SDS011;18457;52.432;16.914;2023-04-24T04:17:32;27.10;;;16.30;;
31910;SDS011;18457;52.432;16.914;2023-04-24T04:20:09;26.50;;;17.50;;
31910;SDS011;18457;52.432;16.914;2023-04-24T04:22:43;27.90;;;17.50;;
31910;SDS011;18457;52.432;16.914;2023-04-24T04:25:23;27.30;;;17.50;;
31910;SDS011;18457;52.432;16.914;2023-04-24T04:27:57;23.20;;;16.00;;
31910;SDS011;18457;52.432;16.914;2023-04-24T04:30:32;25.00;;;17.00;;
31910;SDS011;18457;52.432;16.914;2023-04-24T04:33:08;27.00;;;17.20;;
31910;SDS011;18457;52.432;16.914;2023-04-24T04:35:41;23.60;;;17.50;;
31910;SDS011;18457;52.432;16.914;2023-04-24T04:38:15;25.60;;;17.00;;
31910;SDS011;18457;52.432;16.914;2023-04-24T04:40:57;22.20;;;14.80;;
31910;SDS011;18457;52.432;16.914;2023-04-24T04:43:30;21.70;;;16.70;;
31910;SDS011;18457;52.432;16.914;2023-04-24T04:46:03;23.60;;;16.00;;
31910;SDS011;18457;52.432;16.914;2023-04-24T04:48:49;21.80;;;15.80;;
31910;SDS011;18457;52.432;16.914;2023-04-24T04:51:21;27.00;;;15.70;;
31910;SDS011;18457;52.432;16.914;2023-04-24T04:53:54;25.20;;;14.60;;
31910;SDS011;18457;52.432;16.914;2023-04-24T04:56:26;22.20;;;14.70;;
31910;SDS011;18457;52.432;16.914;2023-04-24T04:59:00;22.60;;;15.00;;
31910;SDS011;18457;52.432;16.914;2023-04-24T05:01:32;21.80;;;14.50;;
31910;SDS011;18457;52.432;16.914;2023-04-24T05:04:07;26.20;;;15.50;;
31910;SDS011;18457;52.432;16.914;2023-04-24T05:06:40;25.90;;;16.00;;
31910;SDS011;18457;52.432;16.914;2023-04-24T05:09:12;21.90;;;14.90;;
31910;SDS011;18457;52.432;16.914;2023-04-24T05:11:57;20.90;;;14.60;;
31910;SDS011;18457;52.432;16.914;2023-04-24T05:14:30;22.20;;;14.80;;
31910;SDS011;18457;52.432;16.914;2023-04-24T05:17:02;21.20;;;14.20;;
31910;SDS011;18457;52.432;16.914;2023-04-24T05:19:35;22.10;;;15.20;;
31910;SDS011;18457;52.432;16.914;2023-04-24T05:22:09;25.10;;;15.10;;
31910;SDS011;18457;52.432;16.914;2023-04-24T05:24:48;21.10;;;14.70;;
31910;SDS011;18457;52.432;16.914;2023-04-24T05:27:39;20.10;;;13.90;;
31910;SDS011;18457;52.432;16.914;2023-04-24T05:30:16;24.10;;;15.10;;
31910;SDS011;18457;52.432;16.914;2023-04-24T05:35:20;24.90;;;14.60;;
31910;SDS011;18457;52.432;16.914;2023-04-24T05:37:52;20.40;;;14.90;;
31910;SDS011;18457;52.432;16.914;2023-04-24T05:40:25;24.40;;;15.50;;
31910;SDS011;18457;52.432;16.914;2023-04-24T05:42:58;21.80;;;14.70;;
31910;SDS011;18457;52.432;16.914;2023-04-24T05:45:31;23.10;;;15.10;;
31910;SDS011;18457;52.432;16.914;2023-04-24T05:48:05;23.60;;;14.40;;
31910;SDS011;18457;52.432;16.914;2023-04-24T05:50:37;14.40;;;9.80;;
31910;SDS011;18457;52.432;16.914;2023-04-24T05:53:10;21.80;;;15.40;;
31910;SDS011;18457;52.432;16.914;2023-04-24T05:55:42;25.60;;;15.30;;
31910;SDS011;18457;52.432;16.914;2023-04-24T06:00:48;21.20;;;14.80;;
31910;SDS011;18457;52.432;16.914;2023-04-24T06:03:20;26.30;;;14.90;;
31910;SDS011;18457;52.432;16.914;2023-04-24T06:05:52;20.20;;;13.80;;
31910;SDS011;18457;52.432;16.914;2023-04-24T06:08:25;24.80;;;15.10;;
31910;SDS011;18457;52.432;16.914;2023-04-24T06:10:57;24.30;;;15.50;;
31910;SDS011;18457;52.432;16.914;2023-04-24T06:13:33;22.10;;;14.10;;
31910;SDS011;18457;52.432;16.914;2023-04-24T06:16:44;19.70;;;13.90;;
31910;SDS011;18457;52.432;16.914;2023-04-24T06:19:28;21.90;;;14.00;;
31910;SDS011;18457;52.432;16.914;2023-04-24T06:22:00;20.70;;;14.20;;
31910;SDS011;18457;52.432;16.914;2023-04-24T06:24:33;22.20;;;15.00;;
31910;SDS011;18457;52.432;16.914;2023-04-24T06:29:36;21.10;;;14.40;;
31910;SDS011;18457;52.432;16.914;2023-04-24T06:32:08;22.30;;;13.80;;
31910;SDS011;18457;52.432;16.914;2023-04-24T06:37:12;24.00;;;14.70;;
31910;SDS011;18457;52.432;16.914;2023-04-24T06:39:45;21.80;;;14.40;;
31910;SDS011;18457;52.432;16.914;2023-04-24T06:42:20;31.30;;;15.30;;
31910;SDS011;18457;52.432;16.914;2023-04-24T06:44:53;20.20;;;14.20;;
31910;SDS011;18457;52.432;16.914;2023-04-24T06:47:26;22.20;;;15.00;;
31910;SDS011;18457;52.432;16.914;2023-04-24T06:50:01;19.30;;;14.00;;
31910;SDS011;18457;52.432;16.914;2023-04-24T06:52:33;24.10;;;15.70;;
31910;SDS011;18457;52.432;16.914;2023-04-24T06:55:07;23.00;;;14.90;;
31910;SDS011;18457;52.432;16.914;2023-04-24T06:57:40;20.60;;;14.20;;
31910;SDS011;18457;52.432;16.914;2023-04-24T07:00:27;21.90;;;14.00;;
31910;SDS011;18457;52.432;16.914;2023-04-24T07:02:59;20.70;;;14.90;;
31910;SDS011;18457;52.432;16.914;2023-04-24T07:08:04;19.00;;;14.10;;
31910;SDS011;18457;52.432;16.914;2023-04-24T07:10:37;22.70;;;15.10;;
31910;SDS011;18457;52.432;16.914;2023-04-24T07:13:10;20.50;;;14.90;;
31910;SDS011;18457;52.432;16.914;2023-04-24T07:15:42;20.20;;;14.40;;
31910;SDS011;18457;52.432;16.914;2023-04-24T07:20:45;20.90;;;14.10;;
31910;SDS011;18457;52.432;16.914;2023-04-24T07:23:19;19.80;;;14.40;;
31910;SDS011;18457;52.432;16.914;2023-04-24T07:25:51;21.20;;;14.70;;
31910;SDS011;18457;52.432;16.914;2023-04-24T07:28:24;24.90;;;15.40;;
31910;SDS011;18457;52.432;16.914;2023-04-24T07:30:56;23.00;;;14.70;;
31910;SDS011;18457;52.432;16.914;2023-04-24T07:33:28;23.90;;;14.50;;
31910;SDS011;18457;52.432;16.914;2023-04-24T07:36:01;22.00;;;15.10;;
31910;SDS011;18457;52.432;16.914;2023-04-24T07:38:34;23.60;;;14.70;;
31910;SDS011;18457;52.432;16.914;2023-04-24T07:41:06;23.30;;;14.70;;
31910;SDS011;18457;52.432;16.914;2023-04-24T07:43:40;22.00;;;15.50;;
31910;SDS011;18457;52.432;16.914;2023-04-24T07:46:13;25.00;;;15.20;;
31910;SDS011;18457;52.432;16.914;2023-04-24T07:48:45;23.00;;;15.80;;
31910;SDS011;18457;52.432;16.914;2023-04-24T07:51:30;19.60;;;15.60;;
31910;SDS011;18457;52.432;16.914;2023-04-24T07:54:07;24.10;;;15.10;;
31910;SDS011;18457;52.432;16.914;2023-04-24T07:56:39;24.00;;;15.10;;
31910;SDS011;18457;52.432;16.914;2023-04-24T07:59:13;23.90;;;15.90;;
31910;SDS011;18457;52.432;16.914;2023-04-24T08:01:46;17.60;;;13.90;;
31910;SDS011;18457;52.432;16.914;2023-04-24T08:04:18;23.50;;;14.90;;
31910;SDS011;18457;52.432;16.914;2023-04-24T08:06:50;19.90;;;13.50;;
31910;SDS011;18457;52.432;16.914;2023-04-24T08:09:23;18.50;;;13.40;;
31910;SDS011;18457;52.432;16.914;2023-04-24T08:11:55;20.80;;;13.80;;
31910;SDS011;18457;52.432;16.914;2023-04-24T08:14:27;20.80;;;14.40;;
31910;SDS011;18457;52.432;16.914;2023-04-24T08:16:59;18.90;;;14.20;;
31910;SDS011;18457;52.432;16.914;2023-04-24T08:19:33;19.20;;;13.50;;
31910;SDS011;18457;52.432;16.914;2023-04-24T08:22:04;18.10;;;13.50;;
31910;SDS011;18457;52.432;16.914;2023-04-24T08:24:37;19.60;;;13.00;;
31910;SDS011;18457;52.432;16.914;2023-04-24T08:27:09;22.10;;;13.50;;
31910;SDS011;18457;52.432;16.914;2023-04-24T08:29:41;19.90;;;13.00;;
31910;SDS011;18457;52.432;16.914;2023-04-24T08:32:13;18.70;;;12.50;;
31910;SDS011;18457;52.432;16.914;2023-04-24T08:34:45;16.50;;;12.70;;
31910;SDS011;18457;52.432;16.914;2023-04-24T08:39:48;19.50;;;12.80;;
31910;SDS011;18457;52.432;16.914;2023-04-24T08:44:51;25.10;;;14.20;;
31910;SDS011;18457;52.432;16.914;2023-04-24T08:47:25;17.80;;;13.10;;
31910;SDS011;18457;52.432;16.914;2023-04-24T08:49:58;18.50;;;13.40;;
31910;SDS011;18457;52.432;16.914;2023-04-24T08:52:31;18.50;;;13.00;;
31910;SDS011;18457;52.432;16.914;2023-04-24T08:55:05;20.70;;;14.40;;
31910;SDS011;18457;52.432;16.914;2023-04-24T08:57:38;20.80;;;13.70;;
31910;SDS011;18457;52.432;16.914;2023-04-24T09:00:13;25.80;;;14.60;;
31910;SDS011;18457;52.432;16.914;2023-04-24T09:02:47;22.20;;;15.00;;
31910;SDS011;18457;52.432;16.914;2023-04-24T09:05:21;21.20;;;13.80;;
31910;SDS011;18457;52.432;16.914;2023-04-24T09:07:56;23.40;;;14.60;;
31910;SDS011;18457;52.432;16.914;2023-04-24T09:10:30;20.60;;;14.10;;
31910;SDS011;18457;52.432;16.914;2023-04-24T09:13:04;23.90;;;14.50;;
31910;SDS011;18457;52.432;16.914;2023-04-24T09:15:38;21.10;;;14.20;;
31910;SDS011;18457;52.432;16.914;2023-04-24T09:23:31;19.60;;;14.70;;
31910;SDS011;18457;52.432;16.914;2023-04-24T09:26:03;19.50;;;12.20;;
31910;SDS011;18457;52.432;16.914;2023-04-24T09:28:37;20.80;;;13.30;;
31910;SDS011;18457;52.432;16.914;2023-04-24T09:31:11;19.80;;;13.20;;
31910;SDS011;18457;52.432;16.914;2023-04-24T09:33:54;17.10;;;12.70;;
31910;SDS011;18457;52.432;16.914;2023-04-24T09:39:03;18.10;;;11.40;;
31910;SDS011;18457;52.432;16.914;2023-04-24T09:41:38;18.30;;;12.10;;
31910;SDS011;18457;52.432;16.914;2023-04-24T09:44:16;17.40;;;11.30;;
31910;SDS011;18457;52.432;16.914;2023-04-24T09:46:51;17.20;;;11.80;;
31910;SDS011;18457;52.432;16.914;2023-04-24T09:49:25;15.60;;;11.50;;
31910;SDS011;18457;52.432;16.914;2023-04-24T09:52:03;14.00;;;11.10;;
31910;SDS011;18457;52.432;16.914;2023-04-24T09:54:36;15.40;;;10.40;;
31910;SDS011;18457;52.432;16.914;2023-04-24T09:57:09;15.00;;;10.50;;
31910;SDS011;18457;52.432;16.914;2023-04-24T09:59:45;10.30;;;8.00;;
31910;SDS011;18457;52.432;16.914;2023-04-24T10:02:18;16.10;;;10.50;;
31910;SDS011;18457;52.432;16.914;2023-04-24T10:04:55;14.60;;;10.60;;
31910;SDS011;18457;52.432;16.914;2023-04-24T10:07:29;16.00;;;11.20;;
31910;SDS011;18457;52.432;16.914;2023-04-24T10:10:05;18.50;;;11.90;;
31910;SDS011;18457;52.432;16.914;2023-04-24T10:12:38;16.40;;;11.60;;
31910;SDS011;18457;52.432;16.914;2023-04-24T10:15:14;19.50;;;11.20;;
31910;SDS011;18457;52.432;16.914;2023-04-24T10:17:50;15.20;;;10.90;;
31910;SDS011;18457;52.432;16.914;2023-04-24T10:20:23;26.70;;;12.20;;
31910;SDS011;18457;52.432;16.914;2023-04-24T10:22:58;18.50;;;11.60;;
31910;SDS011;18457;52.432;16.914;2023-04-24T10:25:33;19.30;;;12.20;;
31910;SDS011;18457;52.432;16.914;2023-04-24T10:28:06;16.00;;;12.40;;
31910;SDS011;18457;52.432;16.914;2023-04-24T10:30:39;16.30;;;12.40;;
31910;SDS011;18457;52.432;16.914;2023-04-24T10:33:15;17.00;;;12.90;;
31910;SDS011;18457;52.432;16.914;2023-04-24T10:35:48;16.30;;;13.80;;
31910;SDS011;18457;52.432;16.914;2023-04-24T10:38:24;17.60;;;13.10;;
31910;SDS011;18457;52.432;16.914;2023-04-24T10:40:59;18.30;;;13.60;;
31910;SDS011;18457;52.432;16.914;2023-04-24T10:43:44;16.60;;;14.30;;
31910;SDS011;18457;52.432;16.914;2023-04-24T10:46:20;15.40;;;13.60;;
31910;SDS011;18457;52.432;16.914;2023-04-24T10:48:54;16.20;;;12.90;;
31910;SDS011;18457;52.432;16.914;2023-04-24T10:51:42;18.90;;;13.10;;
31910;SDS011;18457;52.432;16.914;2023-04-24T10:54:23;17.10;;;13.60;;
31910;SDS011;18457;52.432;16.914;2023-04-24T11:00:20;16.50;;;13.10;;
31910;SDS011;18457;52.432;16.914;2023-04-24T11:02:57;17.50;;;12.80;;
31910;SDS011;18457;52.432;16.914;2023-04-24T11:08:24;13.60;;;9.20;;
31910;SDS011;18457;52.432;16.914;2023-04-24T11:11:08;10.80;;;9.00;;
31910;SDS011;18457;52.432;16.914;2023-04-24T11:16:43;13.50;;;7.40;;
31910;SDS011;18457;52.432;16.914;2023-04-24T11:19:24;10.10;;;6.50;;
31910;SDS011;18457;52.432;16.914;2023-04-24T11:21:59;7.90;;;6.50;;
31910;SDS011;18457;52.432;16.914;2023-04-24T11:24:38;9.20;;;6.60;;
31910;SDS011;18457;52.432;16.914;2023-04-24T11:27:22;7.20;;;6.40;;
31910;SDS011;18457;52.432;16.914;2023-04-24T11:30:00;11.00;;;7.10;;
31910;SDS011;18457;52.432;16.914;2023-04-24T11:32:35;8.00;;;6.70;;
31910;SDS011;18457;52.432;16.914;2023-04-24T11:35:14;9.90;;;6.40;;
31910;SDS011;18457;52.432;16.914;2023-04-24T11:37:48;9.20;;;6.50;;
31910;SDS011;18457;52.432;16.914;2023-04-24T11:40:42;7.50;;;6.40;;
31910;SDS011;18457;52.432;16.914;2023-04-24T11:43:15;8.90;;;6.70;;
31910;SDS011;18457;52.432;16.914;2023-04-24T11:45:49;7.60;;;6.30;;
31910;SDS011;18457;52.432;16.914;2023-04-24T11:48:22;5.70;;;5.00;;
31910;SDS011;18457;52.432;16.914;2023-04-24T11:50:54;6.50;;;5.20;;
31910;SDS011;18457;52.432;16.914;2023-04-24T11:53:27;7.60;;;4.30;;
31910;SDS011;18457;52.432;16.914;2023-04-24T11:56:03;5.40;;;4.40;;
31910;SDS011;18457;52.432;16.914;2023-04-24T11:58:36;9.20;;;4.60;;
31910;SDS011;18457;52.432;16.914;2023-04-24T12:01:09;5.00;;;4.00;;
31910;SDS011;18457;52.432;16.914;2023-04-24T12:03:41;4.60;;;4.10;;
31910;SDS011;18457;52.432;16.914;2023-04-24T12:06:17;7.80;;;5.20;;
31910;SDS011;18457;52.432;16.914;2023-04-24T12:08:50;5.70;;;5.10;;
31910;SDS011;18457;52.432;16.914;2023-04-24T12:11:40;7.50;;;4.90;;
31910;SDS011;18457;52.432;16.914;2023-04-24T12:14:26;7.50;;;4.80;;
31910;SDS011;18457;52.432;16.914;2023-04-24T12:16:59;5.50;;;5.00;;
31910;SDS011;18457;52.432;16.914;2023-04-24T12:19:33;7.90;;;5.20;;
31910;SDS011;18457;52.432;16.914;2023-04-24T12:22:05;8.20;;;4.10;;
31910;SDS011;18457;52.432;16.914;2023-04-24T12:27:32;7.90;;;4.70;;
31910;SDS011;18457;52.432;16.914;2023-04-24T12:30:05;7.00;;;4.80;;
31910;SDS011;18457;52.432;16.914;2023-04-24T12:32:42;5.60;;;4.50;;
31910;SDS011;18457;52.432;16.914;2023-04-24T12:35:20;6.20;;;5.00;;
31910;SDS011;18457;52.432;16.914;2023-04-24T12:37:54;5.60;;;4.50;;
31910;SDS011;18457;52.432;16.914;2023-04-24T12:40:26;4.90;;;4.30;;
31910;SDS011;18457;52.432;16.914;2023-04-24T12:43:00;4.60;;;4.00;;
31910;SDS011;18457;52.432;16.914;2023-04-24T12:45:32;7.40;;;4.40;;
31910;SDS011;18457;52.432;16.914;2023-04-24T12:48:04;6.50;;;4.60;;
31910;SDS011;18457;52.432;16.914;2023-04-24T12:50:37;4.70;;;4.10;;
31910;SDS011;18457;52.432;16.914;2023-04-24T12:53:12;5.80;;;4.50;;
31910;SDS011;18457;52.432;16.914;2023-04-24T12:55:44;4.90;;;3.80;;
31910;SDS011;18457;52.432;16.914;2023-04-24T12:58:21;9.30;;;4.10;;
31910;SDS011;18457;52.432;16.914;2023-04-24T13:00:54;7.90;;;5.10;;
31910;SDS011;18457;52.432;16.914;2023-04-24T13:03:26;10.70;;;5.20;;
31910;SDS011;18457;52.432;16.914;2023-04-24T13:05:59;8.50;;;4.70;;
31910;SDS011;18457;52.432;16.914;2023-04-24T13:08:31;7.90;;;5.40;;
31910;SDS011;18457;52.432;16.914;2023-04-24T13:11:03;13.40;;;6.30;;
31910;SDS011;18457;52.432;16.914;2023-04-24T13:13:35;7.30;;;5.50;;
31910;SDS011;18457;52.432;16.914;2023-04-24T13:16:08;12.60;;;5.90;;
31910;SDS011;18457;52.432;16.914;2023-04-24T13:18:40;8.40;;;5.10;;
31910;SDS011;18457;52.432;16.914;2023-04-24T13:21:13;9.30;;;5.50;;
31910;SDS011;18457;52.432;16.914;2023-04-24T13:23:45;10.70;;;4.70;;
31910;SDS011;18457;52.432;16.914;2023-04-24T13:26:17;6.50;;;5.30;;
31910;SDS011;18457;52.432;16.914;2023-04-24T13:28:49;6.60;;;5.40;;
31910;SDS011;18457;52.432;16.914;2023-04-24T13:31:21;6.60;;;5.70;;
31910;SDS011;18457;52.432;16.914;2023-04-24T13:33:53;8.20;;;5.30;;
31910;SDS011;18457;52.432;16.914;2023-04-24T13:36:26;7.10;;;4.70;;
31910;SDS011;18457;52.432;16.914;2023-04-24T13:38:58;7.60;;;4.70;;
31910;SDS011;18457;52.432;16.914;2023-04-24T13:41:30;7.00;;;3.80;;
31910;SDS011;18457;52.432;16.914;2023-04-24T13:44:02;11.50;;;4.50;;
31910;SDS011;18457;52.432;16.914;2023-04-24T13:46:34;8.00;;;4.40;;
31910;SDS011;18457;52.432;16.914;2023-04-24T13:49:07;5.60;;;3.70;;
31910;SDS011;18457;52.432;16.914;2023-04-24T13:51:39;8.20;;;3.10;;
31910;SDS011;18457;52.432;16.914;2023-04-24T13:54:11;5.00;;;2.70;;
31910;SDS011;18457;52.432;16.914;2023-04-24T13:56:44;3.40;;;2.40;;
31910;SDS011;18457;52.432;16.914;2023-04-24T13:59:16;6.50;;;2.40;;
31910;SDS011;18457;52.432;16.914;2023-04-24T14:01:49;6.30;;;2.60;;
31910;SDS011;18457;52.432;16.914;2023-04-24T14:04:21;4.20;;;2.20;;
31910;SDS011;18457;52.432;16.914;2023-04-24T14:09:25;4.80;;;2.30;;
31910;SDS011;18457;52.432;16.914;2023-04-24T14:12:00;3.90;;;2.00;;
31910;SDS011;18457;52.432;16.914;2023-04-24T14:14:33;4.80;;;2.40;;
31910;SDS011;18457;52.432;16.914;2023-04-24T14:17:05;4.80;;;2.40;;
31910;SDS011;18457;52.432;16.914;2023-04-24T14:19:37;5.00;;;2.40;;
31910;SDS011;18457;52.432;16.914;2023-04-24T14:22:09;4.00;;;2.10;;
31910;SDS011;18457;52.432;16.914;2023-04-24T14:24:41;3.70;;;2.20;;
31910;SDS011;18457;52.432;16.914;2023-04-24T14:27:14;4.70;;;2.10;;
31910;SDS011;18457;52.432;16.914;2023-04-24T14:29:46;5.60;;;2.50;;
31910;SDS011;18457;52.432;16.914;2023-04-24T14:32:18;10.80;;;2.50;;
31910;SDS011;18457;52.432;16.914;2023-04-24T14:34:50;5.10;;;1.80;;
31910;SDS011;18457;52.432;16.914;2023-04-24T14:37:23;5.30;;;2.40;;
31910;SDS011;18457;52.432;16.914;2023-04-24T14:39:55;4.90;;;2.50;;
31910;SDS011;18457;52.432;16.914;2023-04-24T14:42:47;8.20;;;3.00;;
31910;SDS011;18457;52.432;16.914;2023-04-24T14:45:20;2.60;;;1.40;;
31910;SDS011;18457;52.432;16.914;2023-04-24T14:47:53;2.30;;;1.60;;
31910;SDS011;18457;52.432;16.914;2023-04-24T14:50:26;1.90;;;1.80;;
31910;SDS011;18457;52.432;16.914;2023-04-24T14:53:00;2.60;;;1.70;;
31910;SDS011;18457;52.432;16.914;2023-04-24T14:55:33;4.80;;;1.80;;
31910;SDS011;18457;52.432;16.914;2023-04-24T14:58:06;2.80;;;2.10;;
31910;SDS011;18457;52.432;16.914;2023-04-24T15:00:38;5.60;;;2.30;;
31910;SDS011;18457;52.432;16.914;2023-04-24T15:05:42;5.40;;;2.30;;
31910;SDS011;18457;52.432;16.914;2023-04-24T15:08:17;2.70;;;2.20;;
31910;SDS011;18457;52.432;16.914;2023-04-24T15:10:50;6.20;;;2.80;;
31910;SDS011;18457;52.432;16.914;2023-04-24T15:13:22;4.70;;;2.50;;
31910;SDS011;18457;52.432;16.914;2023-04-24T15:15:56;3.70;;;2.60;;
31910;SDS011;18457;52.432;16.914;2023-04-24T15:18:29;5.00;;;2.90;;
31910;SDS011;18457;52.432;16.914;2023-04-24T15:21:01;4.90;;;2.50;;
31910;SDS011;18457;52.432;16.914;2023-04-24T15:23:35;2.30;;;2.00;;
31910;SDS011;18457;52.432;16.914;2023-04-24T15:26:07;6.50;;;3.60;;
31910;SDS011;18457;52.432;16.914;2023-04-24T15:28:39;10.80;;;3.50;;
31910;SDS011;18457;52.432;16.914;2023-04-24T15:31:11;5.50;;;4.10;;
31910;SDS011;18457;52.432;16.914;2023-04-24T15:33:43;7.10;;;2.80;;
31910;SDS011;18457;52.432;16.914;2023-04-24T15:36:16;4.20;;;2.80;;
31910;SDS011;18457;52.432;16.914;2023-04-24T15:38:50;4.20;;;2.90;;
31910;SDS011;18457;52.432;16.914;2023-04-24T15:41:22;6.80;;;3.80;;
31910;SDS011;18457;52.432;16.914;2023-04-24T15:43:55;5.60;;;2.90;;